LGR888 MDSI-MDSD
Flight info
| Callsign | LGR888 |
|---|---|
| Flight time | 0h -9m |
| Altitude | 2000 |
| Route | 182501N0700626W |
| Aircraft | C172/L-SFG/C |
Departure
| Time | 2026-04-22 04:59 |
|---|---|
| Airport | San Isidro Air Base (MDSI) |
Arrival
| Time | 2026-04-22 04:49 |
|---|---|
| Airport | Las Américas International Airport (MDSD) |
| Time | Latitude | Longitude | Altitude | Speed | Heading |
|---|---|---|---|---|---|
| 2026-04-22 04:49 | 18.50766 | -69.75851 | 109 ft | 0 kts | 62° |
| 2026-04-22 04:51 | 18.50782 | -69.75840 | 115 ft | 4 kts | 2° |
| 2026-04-22 04:51 | 18.50806 | -69.75863 | 114 ft | 6 kts | 272° |
| 2026-04-22 04:52 | 18.50794 | -69.75914 | 113 ft | 6 kts | 238° |
| 2026-04-22 04:52 | 18.50769 | -69.75964 | 114 ft | 10 kts | 230° |
| 2026-04-22 04:52 | 18.50709 | -69.76016 | 114 ft | 12 kts | 223° |
| 2026-04-22 04:52 | 18.50619 | -69.76063 | 122 ft | 14 kts | 220° |
| 2026-04-22 04:53 | 18.50527 | -69.76105 | 119 ft | 13 kts | 224° |
| 2026-04-22 04:53 | 18.50440 | -69.76140 | 115 ft | 14 kts | 230° |
| 2026-04-22 04:53 | 18.50337 | -69.76207 | 146 ft | 24 kts | 231° |
| 2026-04-22 04:53 | 18.50107 | -69.76322 | 237 ft | 46 kts | 203° |
| 2026-04-22 04:54 | 18.49865 | -69.76377 | 280 ft | 22 kts | 251° |
| 2026-04-22 04:54 | 18.49802 | -69.76492 | 231 ft | 14 kts | 316° |
| 2026-04-22 04:54 | 18.49806 | -69.76553 | 125 ft | 2 kts | 7° |
| 2026-04-22 04:54 | 18.49820 | -69.76538 | 123 ft | 4 kts | 347° |
| 2026-04-22 04:55 | 18.49855 | -69.76507 | 125 ft | 8 kts | 301° |
| 2026-04-22 04:55 | 18.49924 | -69.76509 | 124 ft | 10 kts | 239° |
| 2026-04-22 04:55 | 18.49955 | -69.76588 | 128 ft | 12 kts | 165° |
| 2026-04-22 04:55 | 18.49915 | -69.76661 | 133 ft | 8 kts | 116° |
| 2026-04-22 04:56 | 18.49879 | -69.76655 | 132 ft | 3 kts | 109° |
| 2026-04-22 04:56 | 18.49887 | -69.76628 | 131 ft | 3 kts | 78° |
| 2026-04-22 04:56 | 18.49916 | -69.76617 | 127 ft | 7 kts | 99° |
| 2026-04-22 04:56 | 18.49923 | -69.76580 | 133 ft | 15 kts | 161° |
| 2026-04-22 04:57 | 18.49841 | -69.76633 | 196 ft | 32 kts | 265° |
| 2026-04-22 04:57 | 18.49896 | -69.76976 | 278 ft | 72 kts | 283° |
| 2026-04-22 04:57 | 18.49942 | -69.77579 | 385 ft | 84 kts | 259° |
| 2026-04-22 04:57 | 18.49630 | -69.78052 | 586 ft | 84 kts | 212° |
| 2026-04-22 04:58 | 18.49025 | -69.78093 | 604 ft | 97 kts | 153° |
| 2026-04-22 04:58 | 18.48448 | -69.77631 | 498 ft | 111 kts | 130° |
| 2026-04-22 04:58 | 18.47938 | -69.77054 | 565 ft | 105 kts | 128° |
| 2026-04-22 04:58 | 18.47503 | -69.76432 | 549 ft | 107 kts | 115° |
| 2026-04-22 04:59 | 18.47215 | -69.75726 | 568 ft | 105 kts | 102° |
| 2026-04-22 04:59 | 18.47046 | -69.75059 | 834 ft | 80 kts | 109° |
| 2026-04-22 04:59 | 18.46662 | -69.74588 | 862 ft | 99 kts | 128° |
| 2026-04-22 04:59 | 18.46398 | -69.73838 | 586 ft | 116 kts | 92° |
| 2026-04-22 05:00 | 18.46292 | -69.73011 | 555 ft | 110 kts | 94° |
| 2026-04-22 05:00 | 18.46134 | -69.72266 | 650 ft | 100 kts | 100° |
| 2026-04-22 05:00 | 18.45964 | -69.71564 | 691 ft | 98 kts | 101° |
| 2026-04-22 05:00 | 18.45784 | -69.70851 | 616 ft | 105 kts | 96° |
| 2026-04-22 05:01 | 18.45650 | -69.70084 | 541 ft | 107 kts | 96° |
| 2026-04-22 05:01 | 18.45459 | -69.69321 | 444 ft | 108 kts | 105° |
| 2026-04-22 05:01 | 18.45174 | -69.68604 | 385 ft | 101 kts | 113° |
| 2026-04-22 05:01 | 18.44749 | -69.68026 | 317 ft | 91 kts | 136° |
| 2026-04-22 05:02 | 18.44233 | -69.67803 | 330 ft | 65 kts | 153° |
| 2026-04-22 05:02 | 18.43880 | -69.67736 | 319 ft | 42 kts | 155° |
| 2026-04-22 05:02 | 18.43648 | -69.67679 | 266 ft | 28 kts | 152° |
| 2026-04-22 05:02 | 18.43482 | -69.67624 | 197 ft | 22 kts | 156° |
| 2026-04-22 05:03 | 18.43377 | -69.67593 | 83 ft | 11 kts | 168° |
| 2026-04-22 05:03 | 18.43322 | -69.67585 | 63 ft | 6 kts | 142° |
| 2026-04-22 05:03 | 18.43270 | -69.67562 | 55 ft | 8 kts | 154° |
| 2026-04-22 05:03 | 18.43222 | -69.67506 | 51 ft | 14 kts | 219° |
| 2026-04-22 05:04 | 18.43153 | -69.67476 | 54 ft | 10 kts | 242° |
| 2026-04-22 05:04 | 18.43103 | -69.67477 | 56 ft | 4 kts | 228° |
| 2026-04-22 05:04 | 18.43069 | -69.67477 | 55 ft | 6 kts | 196° |
| 2026-04-22 05:04 | 18.43031 | -69.67481 | 54 ft | 6 kts | 218° |
| 2026-04-22 05:05 | 18.43005 | -69.67501 | 53 ft | 6 kts | 231° |
| 2026-04-22 05:05 | 18.42989 | -69.67528 | 49 ft | 3 kts | 236° |
| 2026-04-22 05:05 | 18.42980 | -69.67544 | 48 ft | 1 kts | 244° |
| 2026-04-22 05:05 | 18.42973 | -69.67557 | 45 ft | 0 kts | 246° |
| 2026-04-22 05:06 | 18.42972 | -69.67557 | 45 ft | 0 kts | 243° |